logo tempoitalia

Diretta Meteo Bari-Palese Macchie, Italiavenerdì 12 aprile ore 12:50

Mappa
Sereno 22 °C Sereno 24 Ore: T.min 11 T.max 22
Ponente Nord Km/h 13 Punto di rugiada: 10 °C Umidità: 46% Visibilità: 10 Km
Il sole sorge alle: 06:15 Il sole tramonta alle: 19:31
12 Aprile 2024 12:50 tempo osservato: Sereno Sereno 22 46 1026 vento: Nord N 13
12 Aprile 2024 12:20 tempo osservato: Sereno Sereno 22 49 1026 vento: Nord N/NO 13
12 Aprile 2024 11:50 tempo osservato: Sereno Sereno 22 49 1026 vento: Nord N/NO 14.8
12 Aprile 2024 11:20 tempo osservato: Sereno Sereno 22 49 1026 vento: Nord N/NO 11.1
12 Aprile 2024 10:50 tempo osservato: Sereno Sereno 21 52 1026 vento: Nord N/NO 13
12 Aprile 2024 10:20 tempo osservato: Sereno Sereno 20 52 1026 vento: Nord NO 13
12 Aprile 2024 09:50 tempo osservato: Sereno Sereno 20 52 1026 vento: Nord O/NO 11.1
12 Aprile 2024 09:20 tempo osservato: Sereno Sereno 19 55 1026 vento: Nord O/NO 13
12 Aprile 2024 08:50 tempo osservato: Sereno Sereno 19 55 1026 vento: Nord O/NO 11.1
12 Aprile 2024 08:20 tempo osservato: Sereno Sereno 17 59 1026 vento: Nord O/NO 9.3
12 Aprile 2024 07:50 tempo osservato: Sereno Sereno 16 63 1025 vento: Nord N 5.5
12 Aprile 2024 07:20 tempo osservato: Sereno Sereno 15 67 1025 vento: Nord O 9.3
12 Aprile 2024 06:50 tempo osservato: Sereno Sereno 11 81 1025 vento: Nord O/SO 11.1
12 Aprile 2024 06:20 tempo osservato: Sereno Sereno 13 71 1025 vento: Nord O 9.3
12 Aprile 2024 05:50 tempo osservato: Sereno Sereno 14 67 1025 vento: Nord N 5.5
12 Aprile 2024 05:20 tempo osservato: Sereno Sereno 14 67 1025 vento: Nord O 7.4
12 Aprile 2024 04:50 tempo osservato: Sereno Sereno 14 67 1025 vento: Nord N 5.5
12 Aprile 2024 04:20 tempo osservato: Sereno Sereno 14 67 1025 vento: Nord O 7.4
12 Aprile 2024 03:50 tempo osservato: Sereno Sereno 14 71 1025 vento: Nord O 7.4
12 Aprile 2024 03:20 tempo osservato: Sereno Sereno 14 71 1025 vento: Nord O 9.3
12 Aprile 2024 02:50 tempo osservato: Sereno Sereno 14 76 1025 vento: Nord O 9.3
12 Aprile 2024 02:20 tempo osservato: Sereno Sereno 15 72 1025 vento: Nord O 9.3
12 Aprile 2024 01:50 tempo osservato: Sereno Sereno 15 76 1025 vento: Nord O 14.8
12 Aprile 2024 01:20 tempo osservato: Sereno Sereno 15 72 1025 vento: Nord O 14.8
12 Aprile 2024 00:50 tempo osservato: Sereno Sereno 15 72 1025 vento: Nord O 11.1
12 Aprile 2024 00:20 tempo osservato: Sereno Sereno 14 76 1025 vento: Nord O 11.1
11 Aprile 2024 23:50 tempo osservato: Sereno Sereno 13 81 1025 vento: Nord SO 7.4
11 Aprile 2024 23:20 tempo osservato: Sereno Sereno 12 87 1025 vento: Nord O 7.4
11 Aprile 2024 22:50 tempo osservato: Sereno Sereno 14 76 1025 vento: Nord N 3.7
11 Aprile 2024 22:20 tempo osservato: Sereno Sereno 15 72 1025 vento: Nord NO 7.4
11 Aprile 2024 21:50 tempo osservato: Sereno Sereno 15 76 1024 vento: Nord O 7.4
11 Aprile 2024 21:20 tempo osservato: Sereno Sereno 15 93 1024 vento: Nord N 5.5
11 Aprile 2024 20:50 tempo osservato: Sereno Sereno 16 87 1024 vento: Nord N 5.5
11 Aprile 2024 20:20 tempo osservato: Sereno Sereno 16 87 1023 vento: Nord NO 7.4
11 Aprile 2024 19:50 tempo osservato: Sereno Sereno 17 82 1023 vento: Nord N/NO 7.4
11 Aprile 2024 19:20 tempo osservato: Sereno Sereno 18 72 1023 vento: Nord N/NO 9.3
11 Aprile 2024 18:50 tempo osservato: Sereno Sereno 19 63 1023 vento: Nord NO 9.3
11 Aprile 2024 18:20 tempo osservato: Sereno Sereno 20 56 1022 vento: Nord N/NO 9.3
11 Aprile 2024 17:50 tempo osservato: Sereno Sereno 20 52 1023 vento: Nord NO 11.1
11 Aprile 2024 17:20 tempo osservato: Sereno Sereno 20 52 1022 vento: Nord NO 14.8
11 Aprile 2024 16:50 tempo osservato: Sereno Sereno 21 52 1023 vento: Nord NO 13
11 Aprile 2024 16:20 tempo osservato: Sereno Sereno 20 52 1023 vento: Nord NO 14.8
11 Aprile 2024 15:50 tempo osservato: Sereno Sereno 21 49 1023 vento: Nord NO 16.7
11 Aprile 2024 15:20 tempo osservato: Sereno Sereno 20 56 1023 vento: Nord N/NO 14.8
11 Aprile 2024 14:50 tempo osservato: Sereno Sereno 21 52 1023 vento: Nord NO 14.8
11 Aprile 2024 14:20 tempo osservato: Sereno Sereno 20 59 1023 vento: Nord N/NO 13
11 Aprile 2024 13:50 tempo osservato: Sereno Sereno 20 59 1023 vento: Nord N/NO 13